Time;durP1;ratioP1;P1;durP2;ratioP2;P2;SDS_P1;SDS_P2;PMS_P1;PMS_P2;Temp;Humidity;BMP_temperature;BMP_pressure;BME280_temperature;BME280_humidity;BME280_pressure;Samples;Min_cycle;Max_cycle;Signal;HPM_P1;HPM_P2
2022/02/17 00:00:32;;;;;;;12.50;2.57;;;10.40;99.90;;;;;;5058106;28;20203;-53
2022/02/17 00:03:00;;;;;;;13.30;2.70;;;10.40;99.90;;;;;;5059647;28;20277;-50
2022/02/17 00:05:27;;;;;;;20.90;3.97;;;10.40;99.90;;;;;;5055515;28;20203;-53
2022/02/17 00:07:54;;;;;;;11.23;3.00;;;10.30;99.90;;;;;;5062362;28;20201;-49
2022/02/17 00:10:23;;;;;;;11.27;2.47;;;10.30;99.90;;;;;;5063940;28;20222;-50
2022/02/17 00:12:50;;;;;;;13.03;3.90;;;10.20;99.90;;;;;;5046678;28;20217;-45
2022/02/17 00:15:17;;;;;;;14.23;3.37;;;10.20;99.90;;;;;;5064076;28;20210;-47
2022/02/17 00:17:44;;;;;;;20.83;3.60;;;10.20;99.90;;;;;;5054683;28;20206;-45
2022/02/17 00:20:13;;;;;;;16.80;3.23;;;10.20;99.90;;;;;;5057558;28;20214;-48
2022/02/17 00:22:40;;;;;;;11.00;3.17;;;10.20;99.90;;;;;;5060110;28;20202;-45
2022/02/17 00:25:08;;;;;;;13.00;2.77;;;10.20;99.90;;;;;;5064302;28;20203;-46
2022/02/17 00:27:37;;;;;;;13.13;3.63;;;10.20;99.90;;;;;;5047483;28;20210;-50
2022/02/17 00:30:06;;;;;;;17.43;3.10;;;10.20;99.90;;;;;;5062931;28;20718;-47
2022/02/17 00:32:33;;;;;;;10.67;2.73;;;10.20;99.90;;;;;;5056533;28;20195;-48
2022/02/17 00:35:00;;;;;;;20.50;4.63;;;10.20;99.90;;;;;;5059961;28;20235;-45
2022/02/17 00:37:28;;;;;;;16.60;3.43;;;10.30;99.90;;;;;;5055193;28;20206;-49
2022/02/17 00:40:00;;;;;;;10.73;3.03;;;10.30;99.90;;;;;;5063489;28;20229;-47
2022/02/17 00:42:27;;;;;;;19.30;3.50;;;10.30;99.90;;;;;;5062153;28;20555;-49
2022/02/17 00:44:54;;;;;;;12.30;2.87;;;10.30;99.90;;;;;;5048027;28;20924;-48
2022/02/17 00:47:21;;;;;;;15.83;3.00;;;10.30;99.90;;;;;;5061619;28;20203;-47
2022/02/17 00:49:50;;;;;;;16.23;2.87;;;10.20;99.90;;;;;;5055180;28;20337;-52
2022/02/17 00:52:17;;;;;;;17.83;4.10;;;10.30;99.90;;;;;;5058497;28;20206;-51
2022/02/17 00:54:47;;;;;;;17.50;3.20;;;10.30;99.90;;;;;;5059959;28;20218;-49
2022/02/17 00:57:14;;;;;;;14.73;3.20;;;10.20;99.90;;;;;;5062722;28;20287;-50
2022/02/17 00:59:42;;;;;;;13.30;3.20;;;10.20;99.90;;;;;;5045087;28;20320;-52
2022/02/17 01:02:09;;;;;;;11.47;3.17;;;10.30;99.90;;;;;;5062153;28;20193;-43
2022/02/17 01:04:37;;;;;;;11.10;3.43;;;10.20;99.90;;;;;;5053540;28;20580;-44
2022/02/17 01:07:05;;;;;;;16.97;3.27;;;10.20;99.90;;;;;;5056099;28;20214;-48
2022/02/17 01:09:31;;;;;;;12.00;2.50;;;10.30;99.90;;;;;;5060219;28;20668;-49
2022/02/17 01:11:59;;;;;;;16.77;3.33;;;10.30;99.90;;;;;;5062488;28;20194;-49
2022/02/17 01:14:26;;;;;;;13.03;3.60;;;10.30;99.90;;;;;;5057051;28;20223;-48
2022/02/17 01:16:53;;;;;;;17.13;3.20;;;10.30;99.90;;;;;;5053381;28;20303;-47
2022/02/17 01:19:20;;;;;;;16.07;2.90;;;10.30;99.90;;;;;;5061708;28;20225;-48
2022/02/17 01:21:49;;;;;;;11.13;2.33;;;10.30;99.90;;;;;;5082479;27;20325;-46
2022/02/17 01:24:16;;;;;;;9.53;3.20;;;10.30;99.90;;;;;;5061954;28;20182;-46
2022/02/17 01:26:45;;;;;;;10.93;2.47;;;10.30;99.90;;;;;;5057814;28;20873;-49
2022/02/17 01:29:17;;;;;;;12.07;2.37;;;10.30;99.90;;;;;;5062025;28;20602;-47
2022/02/17 01:31:45;;;;;;;10.40;2.97;;;10.30;99.90;;;;;;5043576;28;20198;-46
2022/02/17 01:34:20;;;;;;;10.93;2.70;;;10.30;99.90;;;;;;5063042;28;20740;-47
2022/02/17 01:36:55;;;;;;;13.63;2.77;;;10.30;99.90;;;;;;5058310;28;20198;-50
2022/02/17 01:39:23;;;;;;;13.03;2.70;;;10.20;99.90;;;;;;5055456;28;20734;-48
2022/02/17 01:41:50;;;;;;;12.20;2.70;;;10.30;99.90;;;;;;5059307;28;20198;-47
2022/02/17 01:44:28;;;;;;;9.40;2.50;;;10.20;99.90;;;;;;5060324;28;20198;-51
2022/02/17 01:47:08;;;;;;;14.70;2.23;;;10.20;99.90;;;;;;5047569;28;20445;-48
2022/02/17 01:49:36;;;;;;;12.53;2.53;;;10.20;99.90;;;;;;5057847;28;20721;-53
2022/02/17 01:52:06;;;;;;;10.70;2.83;;;10.20;99.90;;;;;;5057930;28;20285;-50
2022/02/17 01:54:34;;;;;;;10.73;2.77;;;10.20;99.90;;;;;;5053133;28;20229;-52
2022/02/17 01:57:04;;;;;;;17.37;3.20;;;10.20;99.90;;;;;;5062493;28;20217;-49
2022/02/17 01:59:33;;;;;;;9.47;2.00;;;10.20;99.90;;;;;;5058841;28;20226;-51
2022/02/17 02:02:06;;;;;;;8.17;2.40;;;10.20;99.90;;;;;;5054037;28;20220;-47
2022/02/17 02:04:33;;;;;;;11.90;2.17;;;10.20;99.90;;;;;;5059109;28;20604;-49
2022/02/17 02:07:02;;;;;;;10.40;2.13;;;10.20;99.90;;;;;;5056759;28;20199;-47
2022/02/17 02:09:30;;;;;;;11.27;2.60;;;10.20;99.90;;;;;;5052654;28;20602;-50
2022/02/17 02:12:13;;;;;;;16.30;2.67;;;10.20;99.90;;;;;;5069219;28;20217;-48
2022/02/17 02:14:55;;;;;;;8.07;2.53;;;10.20;99.90;;;;;;5050962;28;20790;-53
2022/02/17 02:17:28;;;;;;;11.03;2.67;;;10.20;99.90;;;;;;5045039;28;20226;-54
2022/02/17 02:19:57;;;;;;;12.07;2.40;;;10.20;99.90;;;;;;5059855;28;20225;-47
2022/02/17 02:22:29;;;;;;;16.33;3.87;;;10.10;99.90;;;;;;5053378;28;20282;-52
2022/02/17 02:24:58;;;;;;;14.60;3.57;;;10.10;99.90;;;;;;5055977;28;20202;-48
2022/02/17 02:27:27;;;;;;;20.20;3.53;;;10.00;99.90;;;;;;5059562;28;20222;-50
2022/02/17 02:29:55;;;;;;;10.60;3.17;;;10.00;99.90;;;;;;5062949;28;20309;-48
2022/02/17 02:32:27;;;;;;;15.67;2.80;;;9.90;99.90;;;;;;5056154;28;20263;-50
2022/02/17 02:34:55;;;;;;;16.07;3.90;;;9.90;99.90;;;;;;5058291;28;20221;-50
2022/02/17 02:37:22;;;;;;;19.37;3.10;;;9.80;99.90;;;;;;5059166;28;20207;-52
2022/02/17 02:39:50;;;;;;;19.90;3.20;;;9.80;99.90;;;;;;5057247;28;20222;-50
2022/02/17 02:42:17;;;;;;;13.70;3.47;;;9.70;99.90;;;;;;5066739;28;20198;-55
2022/02/17 02:44:44;;;;;;;17.83;3.57;;;9.70;99.90;;;;;;5062452;28;20194;-56
2022/02/17 02:47:10;;;;;;;16.13;3.67;;;9.60;99.90;;;;;;5064644;28;20195;-56
2022/02/17 02:49:40;;;;;;;18.27;3.47;;;9.60;99.90;;;;;;5046223;28;20821;-58
2022/02/17 02:52:08;;;;;;;17.13;4.03;;;9.60;99.90;;;;;;5065173;28;20212;-58
2022/02/17 02:54:38;;;;;;;16.70;3.23;;;9.50;99.90;;;;;;5054529;28;20268;-57
2022/02/17 02:57:06;;;;;;;19.03;3.73;;;9.50;99.90;;;;;;5060251;28;20205;-53
2022/02/17 02:59:36;;;;;;;13.60;3.70;;;9.40;99.90;;;;;;5061494;28;20295;-55
2022/02/17 03:02:06;;;;;;;17.70;3.00;;;9.40;99.90;;;;;;5065968;28;20577;-49
2022/02/17 03:04:34;;;;;;;16.50;4.00;;;9.40;99.90;;;;;;5047036;28;20211;-52
2022/02/17 03:07:18;;;;;;;15.93;4.00;;;9.40;99.90;;;;;;5065672;28;20583;-52
2022/02/17 03:09:46;;;;;;;21.00;3.93;;;9.30;99.90;;;;;;5055723;28;20228;-53
2022/02/17 03:12:17;;;;;;;20.07;3.60;;;9.30;99.90;;;;;;5058774;28;20321;-56
2022/02/17 03:14:46;;;;;;;9.73;3.67;;;9.30;99.90;;;;;;5059886;28;20280;-54
2022/02/17 03:17:21;;;;;;;11.77;2.80;;;9.30;99.90;;;;;;5063240;28;20225;-54
2022/02/17 03:19:48;;;;;;;14.87;4.20;;;9.20;99.90;;;;;;5047665;28;20823;-52
2022/02/17 03:22:18;;;;;;;18.93;3.00;;;9.20;99.90;;;;;;5060233;28;20210;-46
2022/02/17 03:24:45;;;;;;;11.33;3.10;;;9.20;99.90;;;;;;5054933;28;20282;-50
2022/02/17 03:27:13;;;;;;;13.23;2.43;;;9.10;99.90;;;;;;5057311;28;20202;-47
2022/02/17 03:29:41;;;;;;;20.43;3.27;;;9.10;99.90;;;;;;5060900;28;20298;-50
2022/02/17 03:32:09;;;;;;;14.70;2.37;;;9.10;99.90;;;;;;5064169;28;20297;-46
2022/02/17 03:34:39;;;;;;;15.67;2.50;;;9.10;99.90;;;;;;5060573;28;20608;-52
2022/02/17 03:37:06;;;;;;;14.80;3.17;;;9.10;99.90;;;;;;5049241;28;20292;-47
2022/02/17 03:39:34;;;;;;;15.07;2.83;;;9.10;99.90;;;;;;5054723;28;20280;-48
2022/02/17 03:42:09;;;;;;;14.93;3.00;;;9.00;99.90;;;;;;5062211;28;20237;-46
2022/02/17 03:44:37;;;;;;;11.43;2.67;;;9.00;99.90;;;;;;5079375;28;20213;-50
2022/02/17 03:47:16;;;;;;;13.90;2.70;;;8.90;99.90;;;;;;5074676;28;20194;-46
2022/02/17 03:49:56;;;;;;;13.77;3.13;;;8.80;99.90;;;;;;5059415;28;20226;-49
2022/02/17 03:52:24;;;;;;;16.27;2.93;;;8.80;99.90;;;;;;5081949;27;20714;-50
2022/02/17 03:55:10;;;;;;;15.20;3.43;;;8.80;99.90;;;;;;5057918;28;20214;-46
2022/02/17 03:57:41;;;;;;;14.23;3.20;;;8.90;99.90;;;;;;5053651;28;20233;-46
2022/02/17 04:00:11;;;;;;;12.93;2.93;;;8.90;99.90;;;;;;5063073;28;20229;-50
2022/02/17 04:02:52;;;;;;;13.07;3.30;;;8.90;99.90;;;;;;5060247;28;20832;-51
2022/02/17 04:05:22;;;;;;;13.87;2.90;;;8.90;99.90;;;;;;5083273;28;20568;-51
2022/02/17 04:07:56;;;;;;;16.43;3.37;;;9.00;99.90;;;;;;5042733;28;20226;-49
2022/02/17 04:10:25;;;;;;;12.70;3.40;;;9.00;99.90;;;;;;5055511;28;20278;-50
2022/02/17 04:12:54;;;;;;;9.23;2.20;;;9.00;99.90;;;;;;5060713;28;20992;-51
2022/02/17 04:15:21;;;;;;;17.03;3.47;;;9.00;99.90;;;;;;5064025;28;20222;-51
2022/02/17 04:17:48;;;;;;;10.87;3.13;;;8.90;99.90;;;;;;5080472;28;20183;-51
2022/02/17 04:20:28;;;;;;;13.43;3.07;;;8.90;99.90;;;;;;5082340;28;20225;-52
2022/02/17 04:23:01;;;;;;;15.07;3.20;;;9.00;99.90;;;;;;5061577;28;20245;-48
2022/02/17 04:25:36;;;;;;;12.33;3.30;;;9.00;99.90;;;;;;5053474;28;20667;-51
2022/02/17 04:28:08;;;;;;;10.70;3.20;;;9.00;99.90;;;;;;5061211;28;20206;-48
2022/02/17 04:30:35;;;;;;;16.67;3.00;;;9.00;99.90;;;;;;5064679;28;20305;-54
2022/02/17 04:33:02;;;;;;;12.50;3.10;;;8.90;99.90;;;;;;5076217;28;20190;-50
2022/02/17 04:35:40;;;;;;;12.90;2.30;;;9.00;99.90;;;;;;5058406;28;20218;-48
2022/02/17 04:38:06;;;;;;;13.17;2.70;;;9.00;99.90;;;;;;5048911;28;20217;-47
2022/02/17 04:43:31;;;;;;;15.67;2.80;;;8.90;99.90;;;;;;5059996;28;20562;-49
2022/02/17 04:45:58;;;;;;;16.43;2.90;;;8.90;99.90;;;;;;5055971;28;20652;-48
2022/02/17 04:48:25;;;;;;;12.03;2.70;;;8.80;99.90;;;;;;5062356;28;20207;-51
2022/02/17 04:50:53;;;;;;;11.43;2.77;;;8.80;99.90;;;;;;5059499;28;20211;-51
2022/02/17 04:53:20;;;;;;;13.97;3.07;;;8.80;99.90;;;;;;5061724;28;20659;-55
2022/02/17 04:55:53;;;;;;;15.53;3.47;;;8.80;99.90;;;;;;5047690;28;20316;-52
2022/02/17 04:58:22;;;;;;;12.30;3.27;;;8.70;99.90;;;;;;5061927;28;20202;-43
2022/02/17 05:00:53;;;;;;;13.10;2.97;;;8.70;99.90;;;;;;5048492;28;20201;-49
2022/02/17 05:03:44;;;;;;;13.30;2.90;;;8.70;99.90;;;;;;5066648;28;20209;-46
2022/02/17 05:06:21;;;;;;;10.33;2.63;;;8.60;99.90;;;;;;5065884;28;20289;-52
2022/02/17 05:08:55;;;;;;;13.67;2.43;;;8.50;99.90;;;;;;5062507;28;20730;-50
2022/02/17 05:11:22;;;;;;;14.50;3.60;;;8.40;99.90;;;;;;5041605;28;20206;-52
2022/02/17 05:13:51;;;;;;;12.63;2.30;;;8.40;99.90;;;;;;5060117;28;20194;-50
2022/02/17 05:16:18;;;;;;;17.90;3.03;;;8.20;99.90;;;;;;5054052;28;20215;-46
2022/02/17 05:18:47;;;;;;;15.27;3.27;;;8.30;99.90;;;;;;5061645;28;20271;-50
2022/02/17 05:21:17;;;;;;;13.80;2.80;;;8.20;99.90;;;;;;5058647;28;20244;-48
2022/02/17 05:24:05;;;;;;;11.57;2.63;;;8.10;99.90;;;;;;5063224;28;20227;-51
2022/02/17 05:27:01;;;;;;;8.07;2.50;;;8.00;99.90;;;;;;5067467;28;20227;-55
2022/02/17 05:29:38;;;;;;;15.37;3.20;;;8.00;99.90;;;;;;5059635;28;20951;-52
2022/02/17 05:32:24;;;;;;;17.23;2.93;;;7.90;99.90;;;;;;5061460;28;20224;-49
2022/02/17 05:35:07;;;;;;;16.90;3.20;;;7.90;99.90;;;;;;5059177;28;20234;-49
2022/02/17 05:37:49;;;;;;;13.53;3.00;;;7.80;99.90;;;;;;5057635;28;22435;-49
2022/02/17 05:40:21;;;;;;;14.47;3.57;;;7.80;99.90;;;;;;5051304;28;20214;-53
2022/02/17 05:42:48;;;;;;;17.77;3.73;;;7.70;99.90;;;;;;5051826;28;20241;-48
2022/02/17 05:45:14;;;;;;;19.03;4.10;;;7.60;99.90;;;;;;5067230;28;20186;-42
2022/02/17 05:47:42;;;;;;;13.17;4.03;;;7.50;99.90;;;;;;5055320;28;20210;-48
2022/02/17 05:50:10;;;;;;;14.53;3.80;;;7.40;99.90;;;;;;5061508;28;20302;-48
2022/02/17 05:52:36;;;;;;;19.10;3.33;;;7.30;99.90;;;;;;5058849;28;20190;-46
2022/02/17 05:55:04;;;;;;;13.03;3.60;;;7.20;99.90;;;;;;5056715;28;20218;-46
2022/02/17 05:57:32;;;;;;;22.17;5.10;;;7.20;99.90;;;;;;5045954;28;20198;-48
2022/02/17 05:59:59;;;;;;;16.70;4.10;;;7.20;99.90;;;;;;5051657;28;20713;-55
2022/02/17 06:02:28;;;;;;;13.97;3.83;;;7.10;99.90;;;;;;5057198;28;20251;-50
2022/02/17 06:04:54;;;;;;;15.73;4.77;;;7.20;99.90;;;;;;5058264;28;20609;-51
2022/02/17 06:07:21;;;;;;;15.63;3.73;;;7.10;99.90;;;;;;5065717;28;20193;-46
2022/02/17 06:09:48;;;;;;;18.77;3.90;;;7.00;99.90;;;;;;5060069;28;20214;-44
2022/02/17 06:12:15;;;;;;;17.20;3.40;;;7.20;99.90;;;;;;5049346;28;20195;-41
2022/02/17 06:14:43;;;;;;;18.87;4.13;;;6.90;99.90;;;;;;5060717;28;20199;-45
2022/02/17 06:17:13;;;;;;;24.77;3.60;;;6.90;99.90;;;;;;5059752;28;20230;-41
2022/02/17 06:19:40;;;;;;;17.23;3.43;;;6.90;99.90;;;;;;5054955;28;20233;-46
2022/02/17 06:22:07;;;;;;;15.97;3.67;;;7.00;99.90;;;;;;5051981;28;20201;-48
2022/02/17 06:24:33;;;;;;;14.37;4.30;;;7.00;99.90;;;;;;5057290;28;20655;-44
2022/02/17 06:27:00;;;;;;;15.93;3.30;;;7.00;99.90;;;;;;5044651;28;20198;-44
2022/02/17 06:29:28;;;;;;;23.20;4.73;;;7.10;99.90;;;;;;5053718;28;20226;-41
2022/02/17 06:31:57;;;;;;;14.40;3.67;;;7.10;99.90;;;;;;5064683;28;20218;-43
2022/02/17 06:34:24;;;;;;;22.00;4.70;;;7.00;99.90;;;;;;5058315;28;20205;-41
2022/02/17 06:36:51;;;;;;;18.57;4.13;;;7.00;99.90;;;;;;5072682;28;20221;-43
2022/02/17 06:39:18;;;;;;;25.13;4.87;;;7.00;99.90;;;;;;5060252;28;20252;-43
2022/02/17 06:41:45;;;;;;;16.33;3.83;;;7.00;99.90;;;;;;5064080;28;20210;-42
2022/02/17 06:44:12;;;;;;;20.67;4.30;;;6.90;99.90;;;;;;5043341;28;20210;-43
2022/02/17 06:46:39;;;;;;;20.30;3.50;;;6.90;99.90;;;;;;5051854;28;20195;-43
2022/02/17 06:49:07;;;;;;;23.23;4.70;;;6.90;99.90;;;;;;5059082;28;20229;-42
2022/02/17 06:51:34;;;;;;;20.13;4.53;;;6.90;99.90;;;;;;5060015;28;20982;-42
2022/02/17 06:54:00;;;;;;;24.63;4.57;;;6.90;99.90;;;;;;5064749;28;20201;-41
2022/02/17 06:56:27;;;;;;;24.90;4.90;;;6.80;99.90;;;;;;5050165;28;20923;-41
2022/02/17 06:58:54;;;;;;;29.87;4.87;;;6.80;99.90;;;;;;5047385;28;20218;-42
2022/02/17 07:01:23;;;;;;;29.33;6.37;;;6.80;99.90;;;;;;5047294;28;20641;-43
2022/02/17 07:03:51;;;;;;;23.13;6.00;;;6.80;99.90;;;;;;5066734;28;20194;-42
2022/02/17 07:06:19;;;;;;;25.40;5.67;;;6.80;99.90;;;;;;5056938;28;20198;-45
2022/02/17 07:08:46;;;;;;;27.10;6.07;;;6.80;99.90;;;;;;5064672;28;20306;-44
2022/02/17 07:11:13;;;;;;;31.43;5.40;;;6.80;99.90;;;;;;5058184;28;20209;-42
2022/02/17 07:13:40;;;;;;;27.47;6.07;;;6.80;99.90;;;;;;5063067;28;20269;-45
2022/02/17 07:16:08;;;;;;;20.17;4.17;;;6.80;99.90;;;;;;5042806;28;20711;-43
2022/02/17 07:18:36;;;;;;;23.03;4.47;;;6.70;99.90;;;;;;5064496;28;20226;-44
2022/02/17 07:21:05;;;;;;;14.93;4.33;;;6.70;99.90;;;;;;5061771;28;20287;-42
2022/02/17 07:23:33;;;;;;;23.50;4.40;;;6.70;99.90;;;;;;5061989;28;20281;-41
2022/02/17 07:26:00;;;;;;;18.97;4.20;;;6.70;99.90;;;;;;5060169;28;20199;-42
2022/02/17 07:28:27;;;;;;;21.43;3.93;;;6.70;99.90;;;;;;5065273;28;20218;-41
2022/02/17 07:30:54;;;;;;;22.50;3.47;;;6.70;99.90;;;;;;5054030;28;20298;-43
2022/02/17 07:33:22;;;;;;;13.90;2.70;;;6.60;99.90;;;;;;5052773;28;20660;-48
2022/02/17 07:35:49;;;;;;;20.20;4.53;;;6.60;99.90;;;;;;5061489;28;20210;-43
2022/02/17 07:38:16;;;;;;;16.60;3.47;;;;;;;;;;5062856;28;20356;-44
2022/02/17 07:40:45;;;;;;;19.33;3.10;;;6.50;99.90;;;;;;5069848;28;20895;-43
2022/02/17 07:43:12;;;;;;;19.80;3.43;;;6.50;99.90;;;;;;5044599;28;20216;-47
2022/02/17 07:45:39;;;;;;;13.27;2.67;;;6.50;99.90;;;;;;5050322;28;20195;-45
2022/02/17 07:48:06;;;;;;;9.73;3.03;;;6.50;99.90;;;;;;5053607;28;20186;-45
2022/02/17 07:50:34;;;;;;;14.87;2.83;;;6.40;99.90;;;;;;5066154;28;20263;-41
2022/02/17 07:53:01;;;;;;;10.20;2.63;;;6.40;99.90;;;;;;5053651;28;20226;-51
2022/02/17 07:55:28;;;;;;;16.03;3.13;;;6.40;99.90;;;;;;5067372;28;20201;-51
2022/02/17 07:58:01;;;;;;;13.37;3.30;;;6.40;99.90;;;;;;5064031;28;20194;-44
2022/02/17 08:00:29;;;;;;;18.47;3.10;;;6.30;99.90;;;;;;5060295;28;20297;-44
2022/02/17 08:02:57;;;;;;;16.87;3.30;;;6.40;99.90;;;;;;5045711;28;20323;-43
2022/02/17 08:05:24;;;;;;;21.10;3.60;;;6.40;99.90;;;;;;5058802;28;20199;-43
2022/02/17 08:07:51;;;;;;;17.80;3.60;;;6.40;99.90;;;;;;5058116;28;20210;-45
2022/02/17 08:10:17;;;;;;;21.87;4.07;;;6.40;99.90;;;;;;5065830;28;20219;-44
2022/02/17 08:12:46;;;;;;;15.63;3.40;;;6.40;99.90;;;;;;5061696;28;20221;-46
2022/02/17 08:15:14;;;;;;;15.10;2.73;;;6.20;99.90;;;;;;5054743;28;20189;-44
2022/02/17 08:17:41;;;;;;;21.97;3.57;;;6.40;99.90;;;;;;5047519;28;20299;-44
2022/02/17 08:20:10;;;;;;;10.50;2.60;;;6.50;99.90;;;;;;5057119;28;20479;-43
2022/02/17 08:22:38;;;;;;;18.33;3.10;;;6.50;99.90;;;;;;5056109;28;20230;-46
2022/02/17 08:25:06;;;;;;;13.13;3.47;;;6.50;99.90;;;;;;5061600;28;20195;-44
2022/02/17 08:27:34;;;;;;;21.13;3.67;;;6.30;99.90;;;;;;5061620;28;20210;-42
2022/02/17 08:30:01;;;;;;;15.80;2.93;;;6.50;99.90;;;;;;5049278;28;20222;-44
2022/02/17 08:32:36;;;;;;;17.07;3.63;;;6.80;99.90;;;;;;5047393;28;20207;-46
2022/02/17 08:35:03;;;;;;;16.03;3.43;;;6.80;99.90;;;;;;5051443;28;20281;-45
2022/02/17 08:37:30;;;;;;;13.07;2.83;;;6.50;99.90;;;;;;5062837;28;20613;-43
2022/02/17 08:39:57;;;;;;;15.17;4.17;;;6.50;99.90;;;;;;5065437;28;20233;-42
2022/02/17 08:42:24;;;;;;;24.13;4.20;;;6.50;99.90;;;;;;5068495;28;20198;-46
2022/02/17 08:44:51;;;;;;;15.93;2.73;;;6.70;99.90;;;;;;5056735;28;20268;-43
2022/02/17 08:47:19;;;;;;;18.10;3.33;;;6.50;99.90;;;;;;5058890;28;20792;-44
2022/02/17 08:49:47;;;;;;;19.97;3.00;;;6.80;99.90;;;;;;5048553;28;20264;-43
2022/02/17 08:52:14;;;;;;;16.90;2.87;;;6.50;99.90;;;;;;5053652;28;20206;-43
2022/02/17 08:54:42;;;;;;;13.93;3.23;;;6.80;99.90;;;;;;5055989;28;20203;-42
2022/02/17 08:57:09;;;;;;;9.63;2.00;;;6.70;99.90;;;;;;5058363;28;20306;-42
2022/02/17 08:59:36;;;;;;;10.60;2.23;;;6.70;99.90;;;;;;5061780;28;20396;-44
2022/02/17 09:02:03;;;;;;;15.67;3.43;;;6.60;99.90;;;;;;5060097;28;20207;-42
2022/02/17 09:04:32;;;;;;;13.67;2.83;;;6.60;99.90;;;;;;5049821;28;20272;-42
2022/02/17 09:07:01;;;;;;;15.87;3.20;;;6.50;99.90;;;;;;5055986;28;20724;-43
2022/02/17 09:09:28;;;;;;;16.47;3.27;;;6.60;99.90;;;;;;5055281;28;20727;-48
2022/02/17 09:11:54;;;;;;;10.47;2.50;;;6.70;99.90;;;;;;5058969;28;20198;-45
2022/02/17 09:14:21;;;;;;;12.70;2.37;;;6.50;99.90;;;;;;5061052;28;20274;-44
2022/02/17 09:16:48;;;;;;;10.47;2.47;;;6.70;99.90;;;;;;5057000;28;20590;-46
2022/02/17 09:19:15;;;;;;;8.60;2.10;;;6.50;99.90;;;;;;5051829;28;20222;-46
2022/02/17 09:21:42;;;;;;;14.17;3.67;;;6.60;99.90;;;;;;5062402;28;20201;-44
2022/02/17 09:24:10;;;;;;;13.80;3.37;;;6.70;99.90;;;;;;5049330;28;20210;-47
2022/02/17 09:26:37;;;;;;;15.17;2.93;;;6.90;99.90;;;;;;5056946;28;20209;-43
2022/02/17 09:29:04;;;;;;;19.70;3.47;;;6.80;99.90;;;;;;5054234;28;20206;-43
2022/02/17 09:31:32;;;;;;;12.20;2.60;;;6.70;99.90;;;;;;5056093;28;20203;-43
2022/02/17 09:33:58;;;;;;;12.90;2.20;;;6.70;99.90;;;;;;5046538;28;20218;-46
2022/02/17 09:36:26;;;;;;;6.23;2.17;;;6.90;99.90;;;;;;5063727;28;20215;-43
2022/02/17 09:38:53;;;;;;;5.17;1.70;;;6.80;99.90;;;;;;5062223;28;20217;-46
2022/02/17 09:41:22;;;;;;;4.63;1.47;;;6.80;99.90;;;;;;5061954;28;20192;-44
2022/02/17 09:43:51;;;;;;;5.20;1.20;;;6.60;99.90;;;;;;5065786;28;20205;-49
2022/02/17 09:46:21;;;;;;;5.20;1.10;;;6.60;99.90;;;;;;5067008;28;20194;-46
2022/02/17 09:48:55;;;;;;;5.80;1.10;;;6.50;99.90;;;;;;5058741;28;20641;-46
2022/02/17 09:51:23;;;;;;;2.27;0.77;;;6.50;99.90;;;;;;5065276;28;20297;-44
2022/02/17 09:53:50;;;;;;;3.17;0.40;;;6.40;99.90;;;;;;5065231;28;20604;-47
2022/02/17 09:56:17;;;;;;;2.60;0.60;;;6.30;99.90;;;;;;5059166;28;20604;-41
2022/02/17 09:58:46;;;;;;;3.53;0.70;;;6.30;99.90;;;;;;5066722;28;20221;-45
2022/02/17 10:01:18;;;;;;;0.83;0.50;;;6.60;99.90;;;;;;5067604;28;20240;-42
2022/02/17 10:03:45;;;;;;;2.83;0.60;;;6.20;99.90;;;;;;5063591;28;20226;-43
2022/02/17 10:06:14;;;;;;;3.77;0.60;;;5.90;99.90;;;;;;5053121;28;20198;-42
2022/02/17 10:08:41;;;;;;;1.70;0.40;;;5.90;99.90;;;;;;5071247;28;20748;-44
2022/02/17 10:11:10;;;;;;;3.93;0.60;;;5.80;99.90;;;;;;5059735;28;20225;-52
2022/02/17 10:13:37;;;;;;;0.63;0.30;;;5.70;99.90;;;;;;5063079;28;20214;-46
2022/02/17 10:16:05;;;;;;;1.87;0.40;;;5.70;99.90;;;;;;5062655;28;20198;-42
2022/02/17 10:18:39;;;;;;;3.20;0.50;;;5.60;99.90;;;;;;5067813;28;20679;-44
2022/02/17 10:21:07;;;;;;;3.63;0.90;;;5.60;99.90;;;;;;5051009;28;20206;-45
2022/02/17 10:23:39;;;;;;;3.47;0.90;;;5.60;99.90;;;;;;5064613;28;20284;-44
2022/02/17 10:26:09;;;;;;;5.40;0.80;;;5.60;99.90;;;;;;5056096;28;20197;-44
2022/02/17 10:28:39;;;;;;;3.87;0.90;;;5.60;99.90;;;;;;5060429;28;20214;-42
2022/02/17 10:31:09;;;;;;;9.10;1.83;;;5.70;99.90;;;;;;5065428;28;20203;-42
2022/02/17 10:33:58;;;;;;;9.03;1.70;;;5.80;99.90;;;;;;5057799;28;20858;-43
2022/02/17 10:36:36;;;;;;;5.50;1.80;;;5.90;99.90;;;;;;5055054;28;20643;-41
2022/02/17 10:39:14;;;;;;;8.27;1.33;;;6.00;99.90;;;;;;5053101;28;20230;-46
2022/02/17 10:41:45;;;;;;;8.37;1.87;;;6.10;99.90;;;;;;5063400;28;20682;-43
2022/02/17 10:44:12;;;;;;;11.70;2.87;;;6.20;99.90;;;;;;5058767;28;20200;-42
2022/02/17 10:46:40;;;;;;;10.03;1.50;;;6.30;99.90;;;;;;5077820;28;20554;-41
2022/02/17 10:49:11;;;;;;;13.33;2.53;;;6.40;99.90;;;;;;5061297;28;20443;-42
2022/02/17 10:51:37;;;;;;;10.50;2.37;;;6.40;99.90;;;;;;5045346;28;20256;-53
2022/02/17 10:54:04;;;;;;;15.33;2.73;;;6.50;99.90;;;;;;5058846;28;20195;-47
2022/02/17 10:56:32;;;;;;;15.13;2.53;;;6.50;99.90;;;;;;5047085;28;20203;-41
2022/02/17 10:59:01;;;;;;;11.97;2.33;;;6.60;99.90;;;;;;5060663;28;20214;-41
2022/02/17 11:01:29;;;;;;;9.97;2.50;;;6.60;99.90;;;;;;5054153;28;20210;-42
2022/02/17 11:03:57;;;;;;;10.97;2.40;;;6.70;99.90;;;;;;5065450;28;20195;-40
2022/02/17 11:06:24;;;;;;;14.40;2.47;;;6.70;99.90;;;;;;5043750;28;20285;-41
2022/02/17 11:08:52;;;;;;;7.10;1.63;;;6.80;99.90;;;;;;5065222;28;20214;-41
2022/02/17 11:11:22;;;;;;;6.17;1.80;;;6.80;99.90;;;;;;5050104;28;20666;-43
2022/02/17 11:13:50;;;;;;;7.73;2.27;;;6.80;99.90;;;;;;5063493;28;20237;-45
2022/02/17 11:16:20;;;;;;;6.70;1.60;;;6.90;99.90;;;;;;5053827;28;20246;-44
2022/02/17 11:18:47;;;;;;;14.47;2.00;;;6.90;99.90;;;;;;5054378;28;20223;-44
2022/02/17 11:21:17;;;;;;;11.50;2.20;;;6.90;99.90;;;;;;5049717;28;20741;-44
2022/02/17 11:23:45;;;;;;;10.13;1.73;;;6.90;99.90;;;;;;5054191;28;20233;-42
2022/02/17 11:26:21;;;;;;;14.60;1.83;;;6.90;99.90;;;;;;5058583;28;20194;-41
2022/02/17 11:28:48;;;;;;;8.57;1.93;;;6.90;99.90;;;;;;5055141;28;20305;-43
2022/02/17 11:31:15;;;;;;;8.53;1.70;;;6.90;99.90;;;;;;5063563;28;20208;-44
2022/02/17 11:33:42;;;;;;;8.93;1.80;;;6.90;99.90;;;;;;5061003;28;20889;-44
2022/02/17 11:36:32;;;;;;;6.57;1.93;;;6.90;99.90;;;;;;5062095;28;20210;-42
2022/02/17 11:39:05;;;;;;;8.97;1.40;;;6.80;99.90;;;;;;5049540;28;20225;-43
2022/02/17 11:41:35;;;;;;;3.60;1.23;;;6.70;99.90;;;;;;5052835;28;20359;-42
2022/02/17 11:44:16;;;;;;;4.60;0.90;;;6.50;99.90;;;;;;5056414;28;20210;-42
2022/02/17 11:46:48;;;;;;;2.43;0.90;;;6.40;99.90;;;;;;5057896;28;20225;-43
2022/02/17 11:49:47;;;;;;;4.80;1.10;;;6.30;99.90;;;;;;5057691;28;20642;-42
2022/02/17 11:52:17;;;;;;;3.23;0.90;;;6.20;99.90;;;;;;5055470;28;20214;-42
2022/02/17 11:55:23;;;;;;;3.50;1.17;;;6.10;99.90;;;;;;5055682;28;20255;-43
2022/02/17 11:57:50;;;;;;;7.40;1.13;;;6.10;99.90;;;;;;5052385;28;20214;-45
2022/02/17 12:00:36;;;;;;;10.67;1.80;;;6.10;99.90;;;;;;5047204;28;20233;-44
2022/02/17 12:03:05;;;;;;;3.80;1.07;;;6.20;99.90;;;;;;5062965;28;20675;-44
2022/02/17 12:05:32;;;;;;;9.03;1.93;;;6.20;99.90;;;;;;5053387;28;20813;-45
2022/02/17 12:08:22;;;;;;;13.70;1.83;;;6.20;99.90;;;;;;5053164;28;20671;-41
2022/02/17 12:10:50;;;;;;;10.00;2.37;;;6.20;99.90;;;;;;5066563;28;20229;-45
2022/02/17 12:13:26;;;;;;;10.00;2.00;;;6.30;99.90;;;;;;5057201;28;20206;-44
2022/02/17 12:15:53;;;;;;;9.10;2.20;;;6.30;99.90;;;;;;5056119;28;20722;-44
2022/02/17 12:18:20;;;;;;;9.20;2.43;;;6.30;99.90;;;;;;5058697;28;20214;-51
2022/02/17 12:20:46;;;;;;;9.40;1.23;;;6.30;99.90;;;;;;5056039;28;20206;-45
2022/02/17 12:23:18;;;;;;;5.17;1.10;;;6.30;99.90;;;;;;5056549;28;20202;-48
2022/02/17 12:25:47;;;;;;;3.13;1.07;;;6.20;99.90;;;;;;5045529;28;20356;-50
2022/02/17 12:28:16;;;;;;;2.40;1.07;;;6.10;99.90;;;;;;5056493;28;20202;-48
2022/02/17 12:30:45;;;;;;;6.63;1.33;;;6.10;99.90;;;;;;5056129;28;20961;-48
2022/02/17 12:33:15;;;;;;;6.37;1.40;;;6.10;99.90;;;;;;5063366;28;20251;-46
2022/02/17 12:35:51;;;;;;;8.03;1.20;;;5.90;99.90;;;;;;5053987;28;22717;-46
2022/02/17 12:38:21;;;;;;;5.10;1.17;;;5.90;99.90;;;;;;5056181;28;20222;-45
2022/02/17 12:40:50;;;;;;;5.30;1.40;;;5.90;99.90;;;;;;5046517;28;20285;-49
2022/02/17 12:43:33;;;;;;;7.60;1.47;;;5.90;99.90;;;;;;5053046;28;20558;-43
2022/02/17 12:46:01;;;;;;;12.43;1.77;;;5.90;99.90;;;;;;5056393;28;20210;-43
2022/02/17 12:48:29;;;;;;;6.13;1.30;;;5.90;99.90;;;;;;5055937;28;20218;-43
2022/02/17 12:50:57;;;;;;;8.93;1.40;;;5.90;99.90;;;;;;5059220;28;20200;-45
2022/02/17 12:53:24;;;;;;;12.30;1.83;;;5.90;99.90;;;;;;5041598;28;20226;-42
2022/02/17 12:55:54;;;;;;;9.17;2.10;;;5.90;99.90;;;;;;5059870;28;20214;-42
2022/02/17 12:58:30;;;;;;;5.13;1.17;;;5.90;99.90;;;;;;5028110;28;20218;-42
2022/02/17 13:00:58;;;;;;;11.37;1.60;;;5.90;99.90;;;;;;5036923;28;20206;-41
2022/02/17 13:03:33;;;;;;;6.33;1.77;;;5.90;99.90;;;;;;5049901;28;20286;-45